createdAt,value
2019-02-20T00:01:11.378Z,194.17
2019-02-20T00:03:41.242Z,189.63
2019-02-20T00:06:11.130Z,185.40
2019-02-20T00:08:41.007Z,184.23
2019-02-20T00:11:10.878Z,183.23
2019-02-20T00:13:40.782Z,180.37
2019-02-20T00:16:10.723Z,179.27
2019-02-20T00:18:40.596Z,176.60
2019-02-20T00:21:10.476Z,173.97
2019-02-20T00:23:40.413Z,179.17
2019-02-20T00:26:10.362Z,175.43
2019-02-20T00:28:40.320Z,174.47
2019-02-20T00:31:10.353Z,170.30
2019-02-20T00:33:40.293Z,170.33
2019-02-20T00:36:10.278Z,170.13
2019-02-20T00:38:41.294Z,167.40
2019-02-20T00:41:11.263Z,167.60
2019-02-20T00:43:42.779Z,166.57
2019-02-20T00:46:20.421Z,163.37
2019-02-20T00:49:08.193Z,159.83
2019-02-20T00:51:46.680Z,160.37
2019-02-20T00:54:16.624Z,157.43
2019-02-20T00:56:46.507Z,159.13
2019-02-20T00:59:16.991Z,158.13
2019-02-20T01:01:46.974Z,157.57
2019-02-20T01:04:16.952Z,156.40
2019-02-20T01:06:46.886Z,154.40
2019-02-20T01:09:16.948Z,150.63
2019-02-20T01:11:46.903Z,149.70
2019-02-20T01:14:16.847Z,148.03
2019-02-20T01:16:46.842Z,147.13
2019-02-20T01:19:16.714Z,148.07
2019-02-20T01:21:46.668Z,145.63
2019-02-20T01:24:16.630Z,145.97
2019-02-20T01:26:46.578Z,145.47
2019-02-20T01:29:16.481Z,146.50
2019-02-20T01:31:46.449Z,140.87
2019-02-20T01:34:16.427Z,141.83
2019-02-20T01:36:46.383Z,140.87
2019-02-20T01:39:16.322Z,139.40
2019-02-20T01:41:46.296Z,142.17
2019-02-20T01:44:16.230Z,138.50
2019-02-20T01:46:46.134Z,134.93
2019-02-20T01:49:15.994Z,136.03
2019-02-20T01:51:45.870Z,136.23
2019-02-20T01:54:15.750Z,136.03
2019-02-20T01:56:46.592Z,133.70
2019-02-20T01:59:16.485Z,133.27
2019-02-20T02:01:46.358Z,131.73
2019-02-20T02:04:16.398Z,131.57
2019-02-20T02:06:46.418Z,130.87
2019-02-20T02:09:16.370Z,128.67
2019-02-20T02:11:46.262Z,129.70
2019-02-20T02:14:16.220Z,124.83
2019-02-20T02:16:46.201Z,125.83
2019-02-20T02:19:16.078Z,124.57
2019-02-20T02:21:45.949Z,124.60
2019-02-20T02:24:15.831Z,120.97
2019-02-20T02:26:45.699Z,121.40
2019-02-20T02:29:15.642Z,122.50
2019-02-20T02:31:45.511Z,122.43
2019-02-20T02:34:15.381Z,120.17
2019-02-20T02:36:45.250Z,118.60
2019-02-20T02:39:15.122Z,118.50
2019-02-20T02:41:45.472Z,117.57
2019-02-20T02:44:15.438Z,115.77
2019-02-20T02:46:45.361Z,116.47
2019-02-20T02:49:16.318Z,114.97
2019-02-20T02:51:46.221Z,112.00
2019-02-20T02:54:16.236Z,113.97
2019-02-20T02:56:47.228Z,110.10
2019-02-20T02:59:17.258Z,112.63
2019-02-20T03:01:47.211Z,110.83
2019-02-20T03:04:17.081Z,110.10
2019-02-20T03:06:46.997Z,107.63
2019-02-20T03:09:17.034Z,108.07
2019-02-20T03:11:46.906Z,109.60
2019-02-20T03:14:16.926Z,104.50
2019-02-20T03:16:46.802Z,105.80
2019-02-20T03:19:16.826Z,104.03
2019-02-20T03:21:46.835Z,106.40
2019-02-20T03:24:16.734Z,105.53
2019-02-20T03:26:46.682Z,102.10
2019-02-20T03:29:16.635Z,104.43
2019-02-20T03:31:46.533Z,103.13
2019-02-20T03:34:16.451Z,99.40
2019-02-20T03:36:46.415Z,99.40
2019-02-20T03:39:16.364Z,97.47
2019-02-20T03:41:46.322Z,98.67
2019-02-20T03:44:16.264Z,97.90
2019-02-20T03:46:46.129Z,97.13
2019-02-20T03:49:16.138Z,96.50
2019-02-20T03:51:45.993Z,93.97
2019-02-20T03:54:15.958Z,94.33
2019-02-20T03:56:45.911Z,95.10
2019-02-20T03:59:15.854Z,95.30
2019-02-20T04:01:45.886Z,93.50
2019-02-20T04:04:15.763Z,93.37
2019-02-20T04:06:45.653Z,91.93
2019-02-20T04:09:15.616Z,90.93
2019-02-20T04:11:45.583Z,89.90
2019-02-20T04:14:16.510Z,91.90
2019-02-20T04:16:46.379Z,89.90
2019-02-20T04:19:16.342Z,89.63
2019-02-20T04:21:46.278Z,88.10
2019-02-20T04:24:16.162Z,88.20
2019-02-20T04:26:46.113Z,86.67
2019-02-20T04:29:15.962Z,87.60
2019-02-20T04:31:45.824Z,85.53
2019-02-20T04:34:15.768Z,85.20
2019-02-20T04:36:45.637Z,83.33
2019-02-20T04:39:15.491Z,83.73
2019-02-20T04:41:45.358Z,84.07
2019-02-20T04:44:15.210Z,81.33
2019-02-20T04:46:45.157Z,81.57
2019-02-20T04:49:15.100Z,81.40
2019-02-20T04:51:44.970Z,80.40
2019-02-20T04:54:15.033Z,79.43
2019-02-20T04:56:45.046Z,79.00
2019-02-20T04:59:14.977Z,78.30
2019-02-20T05:01:44.843Z,77.17
2019-02-20T05:04:14.845Z,74.87
2019-02-20T05:06:44.825Z,77.57
2019-02-20T05:09:14.714Z,74.60
2019-02-20T05:11:44.593Z,75.30
2019-02-20T05:14:14.528Z,73.47
2019-02-20T05:16:44.474Z,74.27
2019-02-20T05:19:14.359Z,73.57
2019-02-20T05:21:45.448Z,73.97
2019-02-20T05:24:24.093Z,73.23
2019-02-20T05:26:46.878Z,73.20
2019-02-20T05:29:16.740Z,71.17
2019-02-20T05:31:46.754Z,75.73
2019-02-20T05:34:16.631Z,73.83
2019-02-20T05:36:46.519Z,74.73
2019-02-20T05:39:16.466Z,78.27
2019-02-20T05:41:46.358Z,80.07
2019-02-20T05:44:16.279Z,80.17
2019-02-20T05:46:46.229Z,81.47
2019-02-20T05:49:16.112Z,82.07
2019-02-20T05:51:45.989Z,85.23
2019-02-20T05:54:15.990Z,89.33
2019-02-20T05:56:45.867Z,88.77
2019-02-20T05:59:15.820Z,90.40
2019-02-20T06:01:45.759Z,92.60
2019-02-20T06:04:15.627Z,96.70
2019-02-20T06:06:45.666Z,100.17
2019-02-20T06:09:16.758Z,106.00
2019-02-20T06:11:46.701Z,105.53
2019-02-20T06:14:16.565Z,111.90
2019-02-20T06:16:46.511Z,112.00
2019-02-20T06:19:16.366Z,114.30
2019-02-20T06:21:46.247Z,118.13
2019-02-20T06:24:16.185Z,123.20
2019-02-20T06:26:49.353Z,122.27
2019-02-20T06:29:19.300Z,125.03
2019-02-20T06:31:49.174Z,129.13
2019-02-20T06:34:19.038Z,128.40
2019-02-20T06:36:49.037Z,124.50
2019-02-20T06:39:18.898Z,123.83
2019-02-20T06:41:48.847Z,124.40
2019-02-20T06:44:18.794Z,125.13
2019-02-20T06:46:48.666Z,125.33
2019-02-20T06:49:18.550Z,122.90
2019-02-20T06:51:48.421Z,122.00
2019-02-20T06:54:18.379Z,121.70
2019-02-20T06:56:50.074Z,125.23
2019-02-20T06:59:19.906Z,122.67
2019-02-20T07:01:49.858Z,121.27
2019-02-20T07:04:19.801Z,120.43
2019-02-20T07:07:28.527Z,121.43
2019-02-20T07:11:00.895Z,122.73
2019-02-20T07:13:55.254Z,123.37
2019-02-20T07:17:18.455Z,122.03
2019-02-20T07:20:21.578Z,122.20
2019-02-20T07:23:17.878Z,119.10
2019-02-20T07:25:59.563Z,120.47
2019-02-20T07:29:29.039Z,123.03
2019-02-20T07:31:59.072Z,121.27
2019-02-20T07:34:29.109Z,119.13
2019-02-20T07:36:58.973Z,120.40
2019-02-20T07:39:28.915Z,120.00
2019-02-20T07:41:58.816Z,118.50
2019-02-20T07:44:28.682Z,118.57
2019-02-20T07:46:58.582Z,117.20
2019-02-20T07:49:28.532Z,116.50
2019-02-20T07:51:58.398Z,114.90
2019-02-20T07:54:28.403Z,115.40
2019-02-20T07:56:58.412Z,115.43
2019-02-20T07:59:28.286Z,114.67
2019-02-20T08:01:58.180Z,113.13
2019-02-20T08:04:28.070Z,112.57
2019-02-20T08:06:57.956Z,111.93
2019-02-20T08:09:27.998Z,112.03
2019-02-20T08:11:58.027Z,111.03
2019-02-20T08:14:27.951Z,111.03
2019-02-20T08:16:57.907Z,116.73
2019-02-20T08:19:27.875Z,119.33
2019-02-20T08:21:57.787Z,123.27
2019-02-20T08:24:27.767Z,124.43
2019-02-20T08:26:57.734Z,125.43
2019-02-20T08:29:27.706Z,131.43
2019-02-20T08:31:57.662Z,140.07
2019-02-20T08:34:27.618Z,312.90
2019-02-20T08:36:57.490Z,485.13
2019-02-20T08:39:27.386Z,370.50
2019-02-20T08:41:57.270Z,334.63
2019-02-20T08:44:27.145Z,315.37
2019-02-20T08:46:57.045Z,306.80
2019-02-20T08:49:26.934Z,310.70
2019-02-20T08:51:56.887Z,306.40
2019-02-20T08:54:26.842Z,300.93
2019-02-20T08:56:56.887Z,297.10
2019-02-20T08:59:26.927Z,294.20
2019-02-20T09:01:56.901Z,289.47
2019-02-20T09:04:26.801Z,285.53
2019-02-20T09:06:56.819Z,277.27
2019-02-20T09:09:26.720Z,274.07
2019-02-20T09:11:56.677Z,272.23
2019-02-20T09:14:26.655Z,269.90
2019-02-20T09:16:56.634Z,267.40
2019-02-20T09:19:26.610Z,260.93
2019-02-20T09:21:56.498Z,260.07
2019-02-20T09:24:26.474Z,257.00
2019-02-20T09:26:56.552Z,258.37
2019-02-20T09:29:26.730Z,249.40
2019-02-20T09:31:56.851Z,249.47
2019-02-20T09:34:26.793Z,243.60
2019-02-20T09:36:56.746Z,242.13
2019-02-20T09:39:34.830Z,240.60
2019-02-20T09:42:06.510Z,239.00
2019-02-20T09:44:42.970Z,232.33
2019-02-20T09:47:12.984Z,226.10
2019-02-20T09:49:42.870Z,223.70
2019-02-20T09:52:12.830Z,223.10
2019-02-20T09:54:43.770Z,224.57
2019-02-20T09:57:13.755Z,221.73
2019-02-20T09:59:43.766Z,218.63
2019-02-20T10:02:13.742Z,214.90
2019-02-20T10:04:43.616Z,215.53
2019-02-20T10:07:13.485Z,212.33
2019-02-20T10:09:43.439Z,205.83
2019-02-20T10:12:13.322Z,204.63
2019-02-20T10:14:43.194Z,207.03
2019-02-20T10:17:13.097Z,218.77
2019-02-20T10:19:43.084Z,577.10
2019-02-20T10:22:13.047Z,479.50
2019-02-20T10:24:43.228Z,414.50
2019-02-20T10:27:13.240Z,379.80
2019-02-20T10:29:43.215Z,597.77
2019-02-20T10:32:14.006Z,643.87
2019-02-20T10:34:43.959Z,529.03
2019-02-20T10:37:15.098Z,473.03
2019-02-20T10:39:44.991Z,472.90
2019-02-20T10:42:14.959Z,484.27
2019-02-20T10:44:44.922Z,470.10
2019-02-20T10:47:14.942Z,456.10
2019-02-20T10:49:44.882Z,458.63
2019-02-20T10:52:14.798Z,441.93
2019-02-20T10:54:45.641Z,449.27
2019-02-20T10:57:15.626Z,435.50
2019-02-20T10:59:45.646Z,421.53
2019-02-20T11:02:15.594Z,421.23
2019-02-20T11:04:45.558Z,413.43
2019-02-20T11:07:15.622Z,418.50
2019-02-20T11:09:46.339Z,687.93
2019-02-20T11:12:16.392Z,661.33
2019-02-20T11:14:46.430Z,568.80
2019-02-20T11:17:16.374Z,535.00
2019-02-20T11:19:46.276Z,526.43
2019-02-20T11:22:16.236Z,510.43
2019-02-20T11:24:46.117Z,486.80
2019-02-20T11:27:16.062Z,471.73
2019-02-20T11:29:45.978Z,464.33
2019-02-20T11:32:16.895Z,451.97
2019-02-20T11:34:46.779Z,439.20
2019-02-20T11:37:16.655Z,434.47
2019-02-20T11:39:46.534Z,427.30
2019-02-20T11:42:16.487Z,416.97
2019-02-20T11:44:46.378Z,409.27
2019-02-20T11:47:16.254Z,400.80
2019-02-20T11:49:46.137Z,379.53
2019-02-20T11:52:16.102Z,363.07
2019-02-20T11:54:45.978Z,363.23
2019-02-20T11:57:15.850Z,364.67
2019-02-20T11:59:45.803Z,353.43
2019-02-20T12:02:15.674Z,345.87
2019-02-20T12:04:45.682Z,339.70
2019-02-20T12:07:15.554Z,326.67
2019-02-20T12:09:45.518Z,321.33
2019-02-20T12:12:15.562Z,309.90
2019-02-20T12:14:45.519Z,519.83
2019-02-20T12:17:15.474Z,741.67
2019-02-20T12:19:45.388Z,561.57
2019-02-20T12:22:15.257Z,474.40
2019-02-20T12:24:45.122Z,442.57
2019-02-20T12:27:15.066Z,489.70
2019-02-20T12:29:45.018Z,621.33
2019-02-20T12:32:15.061Z,647.10
2019-02-20T12:34:46.445Z,570.70
2019-02-20T12:37:17.666Z,527.77
2019-02-20T12:39:47.690Z,585.90
2019-02-20T12:42:17.560Z,673.00
2019-02-20T12:44:47.521Z,643.93
2019-02-20T12:47:17.397Z,590.33
2019-02-20T12:49:47.364Z,556.63
2019-02-20T12:52:18.208Z,561.83
2019-02-20T12:54:48.114Z,514.87
2019-02-20T12:57:18.019Z,448.70
2019-02-20T12:59:47.974Z,407.47
2019-02-20T13:02:17.953Z,387.20
2019-02-20T13:04:47.935Z,358.07
2019-02-20T13:07:18.094Z,339.23
2019-02-20T13:09:50.014Z,333.03
2019-02-20T13:12:19.718Z,311.87
2019-02-20T13:14:50.647Z,303.67
2019-02-20T13:17:20.521Z,288.77
2019-02-20T13:19:50.474Z,272.57
2019-02-20T13:22:20.434Z,258.30
2019-02-20T13:24:50.315Z,250.80
2019-02-20T13:27:22.656Z,233.80
2019-02-20T13:29:51.918Z,217.57
2019-02-20T13:32:21.879Z,206.17
2019-02-20T13:34:51.858Z,199.67
2019-02-20T13:37:21.751Z,193.43
2019-02-20T13:39:52.213Z,202.27
2019-02-20T13:42:22.464Z,213.93
2019-02-20T13:44:53.866Z,302.50
2019-02-20T13:47:24.007Z,346.87
2019-02-20T13:49:53.970Z,344.27
2019-02-20T13:52:24.007Z,309.27
2019-02-20T13:54:54.046Z,297.73
2019-02-20T13:57:24.002Z,298.47
2019-02-20T13:59:53.956Z,246.83
2019-02-20T14:02:23.942Z,255.47
2019-02-20T14:04:53.975Z,215.37
2019-02-20T14:07:23.934Z,199.80
2019-02-20T14:09:53.957Z,201.47
2019-02-20T14:12:23.907Z,181.63
2019-02-20T14:14:53.945Z,196.07
2019-02-20T14:17:26.679Z,207.53
2019-02-20T14:19:56.630Z,216.83
2019-02-20T14:22:26.687Z,217.27
2019-02-20T14:24:57.139Z,213.17
2019-02-20T14:27:27.091Z,215.60
2019-02-20T14:29:56.990Z,215.07
2019-02-20T14:32:27.022Z,214.17
2019-02-20T14:34:57.055Z,218.50
2019-02-20T14:37:27.081Z,216.37
2019-02-20T14:39:57.357Z,211.23
2019-02-20T14:42:27.390Z,210.97
2019-02-20T14:44:57.897Z,214.83
2019-02-20T14:47:27.886Z,211.57
2019-02-20T14:49:57.843Z,207.07
2019-02-20T14:52:27.821Z,210.03
2019-02-20T14:54:57.999Z,210.37
2019-02-20T14:57:29.063Z,207.70
2019-02-20T14:59:59.006Z,209.10
2019-02-20T15:02:30.020Z,207.57
2019-02-20T15:05:01.151Z,207.87
2019-02-20T15:07:31.178Z,203.60
2019-02-20T15:10:01.128Z,207.73
2019-02-20T15:12:31.242Z,205.83
2019-02-20T15:15:10.149Z,206.87
2019-02-20T15:17:33.715Z,202.47
2019-02-20T15:20:03.768Z,201.07
2019-02-20T15:22:34.115Z,200.47
2019-02-20T15:25:04.174Z,199.10
2019-02-20T15:27:34.190Z,200.70
2019-02-20T15:30:04.422Z,193.07
2019-02-20T15:32:34.542Z,190.73
2019-02-20T15:35:04.939Z,192.67
2019-02-20T15:37:35.306Z,189.93
2019-02-20T15:40:05.542Z,188.07
2019-02-20T15:42:35.572Z,186.40
2019-02-20T15:45:05.822Z,182.70
2019-02-20T15:47:35.876Z,182.07
2019-02-20T15:50:06.991Z,179.40
2019-02-20T15:52:37.134Z,181.53
2019-02-20T15:55:07.514Z,175.60
2019-02-20T15:57:38.418Z,176.70
2019-02-20T16:00:10.215Z,175.07
2019-02-20T16:02:40.347Z,171.30
2019-02-20T16:05:10.386Z,172.93
2019-02-20T16:07:40.411Z,171.80
2019-02-20T16:10:10.455Z,166.90
2019-02-20T16:12:40.479Z,166.97
2019-02-20T16:15:10.546Z,164.27
2019-02-20T16:17:40.574Z,165.33
2019-02-20T16:20:11.112Z,162.37
2019-02-20T16:22:41.168Z,161.57
2019-02-20T16:25:12.639Z,156.80
2019-02-20T16:27:47.263Z,156.40
2019-02-20T16:30:14.352Z,157.67
2019-02-20T16:32:44.442Z,156.50
2019-02-20T16:35:14.772Z,153.90
2019-02-20T16:37:44.799Z,152.33
2019-02-20T16:40:14.887Z,153.00
2019-02-20T16:42:44.930Z,150.57
2019-02-20T16:45:22.730Z,151.30
2019-02-20T16:47:53.154Z,149.37
2019-02-20T16:50:23.118Z,149.53
2019-02-20T16:52:53.149Z,148.23
2019-02-20T16:55:23.074Z,148.27
2019-02-20T16:57:56.685Z,142.00
2019-02-20T17:00:24.702Z,143.07
2019-02-20T17:02:55.070Z,141.50
2019-02-20T17:05:25.235Z,142.47
2019-02-20T17:07:55.270Z,139.03
2019-02-20T17:10:25.352Z,138.63
2019-02-20T17:12:55.463Z,137.20
2019-02-20T17:15:25.542Z,136.83
2019-02-20T17:17:55.519Z,135.83
2019-02-20T17:20:25.502Z,134.70
2019-02-20T17:22:55.470Z,133.70
2019-02-20T17:25:25.545Z,133.50
2019-02-20T17:27:55.590Z,130.43
2019-02-20T17:30:25.550Z,130.73
2019-02-20T17:32:55.515Z,128.80
2019-02-20T17:35:25.522Z,129.33
2019-02-20T17:37:55.540Z,126.87
2019-02-20T17:40:25.629Z,125.80
2019-02-20T17:42:55.766Z,126.53
2019-02-20T17:45:26.186Z,121.03
2019-02-20T17:47:56.221Z,122.57
2019-02-20T17:50:26.210Z,121.73
2019-02-20T17:52:56.166Z,119.60
2019-02-20T17:55:26.173Z,118.83
2019-02-20T17:57:56.123Z,120.50
2019-02-20T18:00:28.366Z,117.97
2019-02-20T18:02:58.318Z,116.50
2019-02-20T18:05:28.182Z,117.07
2019-02-20T18:07:58.161Z,116.00
2019-02-20T18:10:28.117Z,114.13
2019-02-20T18:12:57.990Z,113.97
2019-02-20T18:15:27.897Z,112.17
2019-02-20T18:17:57.787Z,109.93
2019-02-20T18:20:27.750Z,111.97
2019-02-20T18:22:57.701Z,112.53
2019-02-20T18:25:27.643Z,109.77
2019-02-20T18:27:59.564Z,108.37
2019-02-20T18:30:31.700Z,109.37
2019-02-20T18:33:01.372Z,107.77
2019-02-20T18:35:31.360Z,106.83
2019-02-20T18:38:01.428Z,104.60
2019-02-20T18:40:31.442Z,106.27
2019-02-20T18:43:01.553Z,104.53
2019-02-20T18:45:31.587Z,104.90
2019-02-20T18:48:01.660Z,108.03
2019-02-20T18:50:31.683Z,105.67
2019-02-20T18:53:01.880Z,107.93
2019-02-20T18:55:31.950Z,104.63
2019-02-20T18:58:02.013Z,105.43
2019-02-20T19:00:32.041Z,101.57
2019-02-20T19:03:02.066Z,103.40
2019-02-20T19:05:33.747Z,101.47
2019-02-20T19:08:32.815Z,99.53
2019-02-20T19:11:06.708Z,99.13
2019-02-20T19:13:57.413Z,98.60
2019-02-20T19:17:07.365Z,97.37
2019-02-20T19:19:56.767Z,97.20
2019-02-20T19:22:48.442Z,96.53
2019-02-20T19:26:15.050Z,92.80
2019-02-20T19:29:33.966Z,93.13
2019-02-20T19:32:40.062Z,91.53
2019-02-20T19:35:31.074Z,94.03
2019-02-20T19:38:57.312Z,92.10
2019-02-20T19:41:47.041Z,92.17
2019-02-20T19:44:57.041Z,96.23
2019-02-20T19:48:12.006Z,95.33
2019-02-20T19:51:17.538Z,94.37
2019-02-20T19:54:06.252Z,93.27
2019-02-20T19:57:15.700Z,96.83
2019-02-20T20:00:27.080Z,97.20
2019-02-20T20:03:21.549Z,94.30
2019-02-20T20:06:35.897Z,96.07
2019-02-20T20:09:53.484Z,101.43
2019-02-20T20:13:08.246Z,102.03
2019-02-20T20:15:59.746Z,104.73
2019-02-20T20:18:37.963Z,107.73
2019-02-20T20:21:37.819Z,112.57
2019-02-20T20:24:49.017Z,112.63
2019-02-20T20:28:01.892Z,112.33
2019-02-20T20:31:30.903Z,116.47
2019-02-20T20:34:35.334Z,120.03
2019-02-20T20:37:30.362Z,120.93
2019-02-20T20:40:40.045Z,123.27
2019-02-20T20:43:40.246Z,119.07
2019-02-20T20:47:09.308Z,119.93
2019-02-20T20:50:07.870Z,121.57
2019-02-20T20:52:57.302Z,131.37
2019-02-20T20:56:04.154Z,128.83
2019-02-20T20:59:17.540Z,130.37
2019-02-20T21:01:55.734Z,127.23
2019-02-20T21:05:05.894Z,129.73
2019-02-20T21:08:08.708Z,135.27
2019-02-20T21:11:36.743Z,144.30
2019-02-20T21:14:17.041Z,145.60
2019-02-20T21:17:35.510Z,145.73
2019-02-20T21:20:45.553Z,147.47
2019-02-20T21:24:05.987Z,149.47
2019-02-20T21:27:24.466Z,147.27
2019-02-20T21:30:35.102Z,146.33
2019-02-20T21:33:25.243Z,148.70
2019-02-20T21:36:09.913Z,154.37
2019-02-20T21:39:13.543Z,153.90
2019-02-20T21:42:27.121Z,155.03
2019-02-20T21:45:15.048Z,156.80
2019-02-20T21:48:31.850Z,157.80
2019-02-20T21:51:46.652Z,155.93
2019-02-20T21:54:56.882Z,153.77
2019-02-20T21:57:49.123Z,157.57
2019-02-20T22:00:32.427Z,156.07
2019-02-20T22:03:39.562Z,159.03
2019-02-20T22:07:02.703Z,159.60
2019-02-20T22:10:18.870Z,162.37
2019-02-20T22:13:27.078Z,160.90
2019-02-20T22:16:29.534Z,161.33
2019-02-20T22:19:43.449Z,156.07
2019-02-20T22:22:40.190Z,152.87
2019-02-20T22:25:38.197Z,154.77
2019-02-20T22:28:54.394Z,153.90
2019-02-20T22:32:15.946Z,154.73
2019-02-20T22:35:36.066Z,150.70
2019-02-20T22:38:49.776Z,153.23
2019-02-20T22:42:28.371Z,155.30
2019-02-20T22:45:45.002Z,151.47
2019-02-20T22:48:47.537Z,153.27
2019-02-20T22:52:01.566Z,151.63
2019-02-20T22:55:17.417Z,148.83
2019-02-20T22:58:02.243Z,149.83
2019-02-20T23:01:09.958Z,148.77
2019-02-20T23:04:10.842Z,147.63
2019-02-20T23:07:37.495Z,143.97
2019-02-20T23:10:33.793Z,146.07
2019-02-20T23:13:23.065Z,144.77
2019-02-20T23:15:52.954Z,143.87
2019-02-20T23:18:22.933Z,142.80
2019-02-20T23:20:52.858Z,144.03
2019-02-20T23:23:22.750Z,139.50
2019-02-20T23:25:52.703Z,138.50
2019-02-20T23:28:22.582Z,137.50
2019-02-20T23:30:52.525Z,137.63
2019-02-20T23:33:22.418Z,137.97
2019-02-20T23:35:52.371Z,135.63
2019-02-20T23:38:22.339Z,135.93
2019-02-20T23:40:52.297Z,136.33
2019-02-20T23:43:22.694Z,134.27
2019-02-20T23:45:53.644Z,134.40
2019-02-20T23:48:23.601Z,135.07
2019-02-20T23:50:53.479Z,133.43
2019-02-20T23:53:23.601Z,132.30
2019-02-20T23:55:53.866Z,129.70
2019-02-20T23:58:23.883Z,131.30
